Airfield :







YOU CAN JOIN US ON...

 
LOGIN :

Register | Disclaimer

   EN    FR    IT 

 









Legend :    VFR   Marginal VFR   IFR   Intensive IFR   Very Intensive IFR
Visi :
Ceiling :
>= 8 km
>= 3000ft
5 to 8 km
1000 to 3000 ft
1500m to 5 km
500 to 1000 ft
800 to 1500m
200 to 500 ft
< 800m
< 200 ft
Symbols :   Thunderstorms  Fog  Heavy snow  Heavy precipitations  Wind > 20 kt






- Airport Elevation : 193 ft
- IATA code : ZBF


CZBF - Bathurst

CURRENT METAR :
  • 231838Z AUTO 04004KT 350V060 2 1/4SM +RA BR BKN009 OVC016 08/08 A2992 RMK SLP134

EXPIRED METARs :
  • 231828Z AUTO 35004KT 290V020 2 1/2SM -RA BR BKN009 OVC015 09/08 A2992 RMK LTNG DIST SW PRESRR SLP137
  • 231800Z AUTO 07006KT 4SM -RA BR BKN015 OVC021 09/08 A2989 RMK PCPN 3.5MM PAST HR SLP125
  • 231755Z AUTO 08005KT 5SM -RA BR BKN018 OVC023 09/08 A2989 RMK SLP127
  • 231729Z AUTO 11007KT 7SM RA BKN021 BKN026 OVC032 09/08 A2991 RMK SLP133
  • 231717Z AUTO 11011G17KT 6SM -RA BR BKN024 BKN028 OVC032 09/07 A2991 RMK SLP132
  • 231643Z AUTO 12011G22KT 9SM -RA OVC026 11/06 A2993 RMK SLP140
  • 231600Z AUTO 10015G25KT 9SM OVC026 11/06 A2994 RMK PRESFR SLP143
  • 231550Z AUTO 12017G27KT 9SM OVC026 11/06 A2997 RMK SLP153

TAF AMD TAF CZBF
Valid from the 23 at 18:00 until the 24 at 02:00 UTC


231804Z 2318/2402 08008G18KT 6SM -RA BR SCT015 OVC025
TEMPO 2318/2320 VRB15G25KT 11/2SM TSRA BR OVC015CB
FM232000 07008G18KT 4SM -RA BR FEW002 OVC010
TEMPO 2320/2322 2SM RA BR OVC002
FM232200 05006KT 1SM -RA BR OVC002
TEMPO 2322/2402 2SM -RA BR OVC004 RMK FCST BASED ON AUTO OBS. NXT FCST BY 232000Z



MET'MAP, your aeronautical weather chart ! - Copyright ORBIFLY December 2007 - Disclaimer

ORBIFLY MET'MAP TEAM :

Programming & Development : Alexandra Zaïnal
Concept & Development : Baudouin d'Aumeries
Co-Development & Prog : Marc-Olivier Méhu
Technical & hardware support : Manuel Goepfert

Contact : metmap@orbifly.com




SOURCES & CREDITS :

   NOAA